sensor_id;sensor_type;location;lat;lon;timestamp;pressure;altitude;pressure_sealevel;temperature
15079;BMP180;6932;51.438;5.470;2022-08-20T00:00:54;101197.00;;;26.20
15079;BMP180;6932;51.438;5.470;2022-08-20T00:03:26;101194.00;;;26.20
15079;BMP180;6932;51.438;5.470;2022-08-20T00:06:02;101194.00;;;26.20
15079;BMP180;6932;51.438;5.470;2022-08-20T00:08:29;101178.00;;;26.20
15079;BMP180;6932;51.438;5.470;2022-08-20T00:10:57;101180.00;;;26.20
15079;BMP180;6932;51.438;5.470;2022-08-20T00:13:28;101182.00;;;26.30
15079;BMP180;6932;51.438;5.470;2022-08-20T00:15:55;101179.00;;;26.30
15079;BMP180;6932;51.438;5.470;2022-08-20T00:18:22;101174.00;;;26.30
15079;BMP180;6932;51.438;5.470;2022-08-20T00:20:51;101164.00;;;26.30
15079;BMP180;6932;51.438;5.470;2022-08-20T00:23:19;101177.00;;;26.30
15079;BMP180;6932;51.438;5.470;2022-08-20T00:25:45;101170.00;;;26.30
15079;BMP180;6932;51.438;5.470;2022-08-20T00:28:11;101176.00;;;26.30
15079;BMP180;6932;51.438;5.470;2022-08-20T00:30:41;101176.00;;;26.40
15079;BMP180;6932;51.438;5.470;2022-08-20T00:33:15;101176.00;;;26.40
15079;BMP180;6932;51.438;5.470;2022-08-20T00:35:47;101178.00;;;26.40
15079;BMP180;6932;51.438;5.470;2022-08-20T00:38:14;101188.00;;;26.40
15079;BMP180;6932;51.438;5.470;2022-08-20T00:40:47;101189.00;;;26.40
15079;BMP180;6932;51.438;5.470;2022-08-20T00:43:37;101177.00;;;26.40
15079;BMP180;6932;51.438;5.470;2022-08-20T00:46:11;101178.00;;;26.40
15079;BMP180;6932;51.438;5.470;2022-08-20T00:48:42;101181.00;;;26.40
15079;BMP180;6932;51.438;5.470;2022-08-20T00:51:37;101186.00;;;26.50
15079;BMP180;6932;51.438;5.470;2022-08-20T00:54:27;101172.00;;;26.50
15079;BMP180;6932;51.438;5.470;2022-08-20T00:57:04;101176.00;;;26.50
15079;BMP180;6932;51.438;5.470;2022-08-20T00:59:35;101179.00;;;26.40
15079;BMP180;6932;51.438;5.470;2022-08-20T01:02:05;101198.00;;;26.40
15079;BMP180;6932;51.438;5.470;2022-08-20T01:04:34;101185.00;;;26.40
15079;BMP180;6932;51.438;5.470;2022-08-20T01:07:02;101179.00;;;26.40
15079;BMP180;6932;51.438;5.470;2022-08-20T01:09:30;101180.00;;;26.40
15079;BMP180;6932;51.438;5.470;2022-08-20T01:11:57;101177.00;;;26.40
15079;BMP180;6932;51.438;5.470;2022-08-20T01:14:23;101164.00;;;26.40
15079;BMP180;6932;51.438;5.470;2022-08-20T01:17:07;101163.00;;;26.30
15079;BMP180;6932;51.438;5.470;2022-08-20T01:19:51;101174.00;;;26.30
15079;BMP180;6932;51.438;5.470;2022-08-20T01:22:31;101172.00;;;26.20
15079;BMP180;6932;51.438;5.470;2022-08-20T01:28:16;101180.00;;;26.20
15079;BMP180;6932;51.438;5.470;2022-08-20T01:30:42;101179.00;;;26.10
15079;BMP180;6932;51.438;5.470;2022-08-20T01:33:08;101177.00;;;26.10
15079;BMP180;6932;51.438;5.470;2022-08-20T01:35:38;101172.00;;;26.10
15079;BMP180;6932;51.438;5.470;2022-08-20T01:38:06;101180.00;;;26.10
15079;BMP180;6932;51.438;5.470;2022-08-20T01:41:15;101174.00;;;26.00
15079;BMP180;6932;51.438;5.470;2022-08-20T01:43:45;101175.00;;;25.90
15079;BMP180;6932;51.438;5.470;2022-08-20T01:46:11;101178.00;;;25.90
15079;BMP180;6932;51.438;5.470;2022-08-20T01:48:41;101180.00;;;25.90
15079;BMP180;6932;51.438;5.470;2022-08-20T01:51:18;101169.00;;;25.80
15079;BMP180;6932;51.438;5.470;2022-08-20T01:53:51;101180.00;;;25.80
15079;BMP180;6932;51.438;5.470;2022-08-20T01:56:26;101174.00;;;25.80
15079;BMP180;6932;51.438;5.470;2022-08-20T01:58:56;101170.00;;;25.70
15079;BMP180;6932;51.438;5.470;2022-08-20T02:01:34;101174.00;;;25.70
15079;BMP180;6932;51.438;5.470;2022-08-20T02:04:03;101180.00;;;25.70
15079;BMP180;6932;51.438;5.470;2022-08-20T02:06:34;101172.00;;;25.70
15079;BMP180;6932;51.438;5.470;2022-08-20T02:09:03;101167.00;;;25.70
15079;BMP180;6932;51.438;5.470;2022-08-20T02:11:30;101172.00;;;25.60
15079;BMP180;6932;51.438;5.470;2022-08-20T02:13:57;101179.00;;;25.60
15079;BMP180;6932;51.438;5.470;2022-08-20T02:16:28;101181.00;;;25.60
15079;BMP180;6932;51.438;5.470;2022-08-20T02:18:59;101182.00;;;25.60
15079;BMP180;6932;51.438;5.470;2022-08-20T02:21:31;101179.00;;;25.50
15079;BMP180;6932;51.438;5.470;2022-08-20T02:23:58;101189.00;;;25.50
15079;BMP180;6932;51.438;5.470;2022-08-20T02:26:25;101189.00;;;25.50
15079;BMP180;6932;51.438;5.470;2022-08-20T02:28:52;101182.00;;;25.50
15079;BMP180;6932;51.438;5.470;2022-08-20T02:31:22;101170.00;;;25.50
15079;BMP180;6932;51.438;5.470;2022-08-20T02:33:48;101178.00;;;25.40
15079;BMP180;6932;51.438;5.470;2022-08-20T02:36:17;101187.00;;;25.40
15079;BMP180;6932;51.438;5.470;2022-08-20T02:38:45;101188.00;;;25.40
15079;BMP180;6932;51.438;5.470;2022-08-20T02:41:11;101189.00;;;25.40
15079;BMP180;6932;51.438;5.470;2022-08-20T02:43:38;101192.00;;;25.40
15079;BMP180;6932;51.438;5.470;2022-08-20T02:46:05;101193.00;;;25.40
15079;BMP180;6932;51.438;5.470;2022-08-20T02:48:34;101196.00;;;25.40
15079;BMP180;6932;51.438;5.470;2022-08-20T02:51:05;101193.00;;;25.40
15079;BMP180;6932;51.438;5.470;2022-08-20T02:53:37;101193.00;;;25.40
15079;BMP180;6932;51.438;5.470;2022-08-20T02:56:06;101192.00;;;25.40
15079;BMP180;6932;51.438;5.470;2022-08-20T02:58:33;101193.00;;;25.30
15079;BMP180;6932;51.438;5.470;2022-08-20T03:01:01;101188.00;;;25.30
15079;BMP180;6932;51.438;5.470;2022-08-20T03:03:28;101197.00;;;25.30
15079;BMP180;6932;51.438;5.470;2022-08-20T03:05:57;101195.00;;;25.30
15079;BMP180;6932;51.438;5.470;2022-08-20T03:08:26;101201.00;;;25.30
15079;BMP180;6932;51.438;5.470;2022-08-20T03:10:54;101203.00;;;25.30
15079;BMP180;6932;51.438;5.470;2022-08-20T03:13:22;101201.00;;;25.30
15079;BMP180;6932;51.438;5.470;2022-08-20T03:15:56;101207.00;;;25.30
15079;BMP180;6932;51.438;5.470;2022-08-20T03:18:32;101199.00;;;25.30
15079;BMP180;6932;51.438;5.470;2022-08-20T03:20:59;101200.00;;;25.30
15079;BMP180;6932;51.438;5.470;2022-08-20T03:23:26;101194.00;;;25.30
15079;BMP180;6932;51.438;5.470;2022-08-20T03:25:52;101202.00;;;25.30
15079;BMP180;6932;51.438;5.470;2022-08-20T03:28:18;101200.00;;;25.30
15079;BMP180;6932;51.438;5.470;2022-08-20T03:30:45;101200.00;;;25.30
15079;BMP180;6932;51.438;5.470;2022-08-20T03:33:11;101198.00;;;25.30
15079;BMP180;6932;51.438;5.470;2022-08-20T03:35:38;101200.00;;;25.30
15079;BMP180;6932;51.438;5.470;2022-08-20T03:38:10;101203.00;;;25.30
15079;BMP180;6932;51.438;5.470;2022-08-20T03:40:37;101209.00;;;25.30
15079;BMP180;6932;51.438;5.470;2022-08-20T03:43:06;101206.00;;;25.20
15079;BMP180;6932;51.438;5.470;2022-08-20T03:45:36;101204.00;;;25.30
15079;BMP180;6932;51.438;5.470;2022-08-20T03:48:05;101212.00;;;25.30
15079;BMP180;6932;51.438;5.470;2022-08-20T03:50:38;101215.00;;;25.30
15079;BMP180;6932;51.438;5.470;2022-08-20T03:53:11;101207.00;;;25.30
15079;BMP180;6932;51.438;5.470;2022-08-20T03:55:40;101207.00;;;25.30
15079;BMP180;6932;51.438;5.470;2022-08-20T03:58:08;101216.00;;;25.20
15079;BMP180;6932;51.438;5.470;2022-08-20T04:00:46;101214.00;;;25.20
15079;BMP180;6932;51.438;5.470;2022-08-20T04:03:13;101216.00;;;25.20
15079;BMP180;6932;51.438;5.470;2022-08-20T04:05:40;101221.00;;;25.20
15079;BMP180;6932;51.438;5.470;2022-08-20T04:08:20;101225.00;;;25.20
15079;BMP180;6932;51.438;5.470;2022-08-20T04:10:48;101218.00;;;25.10
15079;BMP180;6932;51.438;5.470;2022-08-20T04:13:20;101220.00;;;25.10
15079;BMP180;6932;51.438;5.470;2022-08-20T04:15:47;101222.00;;;25.10
15079;BMP180;6932;51.438;5.470;2022-08-20T04:18:15;101224.00;;;25.10
15079;BMP180;6932;51.438;5.470;2022-08-20T04:20:46;101226.00;;;25.00
15079;BMP180;6932;51.438;5.470;2022-08-20T04:23:12;101224.00;;;25.00
15079;BMP180;6932;51.438;5.470;2022-08-20T04:25:43;101230.00;;;25.00
15079;BMP180;6932;51.438;5.470;2022-08-20T04:28:14;101225.00;;;25.00
15079;BMP180;6932;51.438;5.470;2022-08-20T04:30:44;101229.00;;;24.90
15079;BMP180;6932;51.438;5.470;2022-08-20T04:33:12;101232.00;;;24.90
15079;BMP180;6932;51.438;5.470;2022-08-20T04:35:38;101229.00;;;24.90
15079;BMP180;6932;51.438;5.470;2022-08-20T04:38:16;101235.00;;;24.90
15079;BMP180;6932;51.438;5.470;2022-08-20T04:40:43;101239.00;;;24.90
15079;BMP180;6932;51.438;5.470;2022-08-20T04:43:34;101242.00;;;24.80
15079;BMP180;6932;51.438;5.470;2022-08-20T04:46:07;101254.00;;;24.80
15079;BMP180;6932;51.438;5.470;2022-08-20T04:48:36;101258.00;;;24.80
15079;BMP180;6932;51.438;5.470;2022-08-20T04:51:06;101252.00;;;24.70
15079;BMP180;6932;51.438;5.470;2022-08-20T04:53:33;101263.00;;;24.70
15079;BMP180;6932;51.438;5.470;2022-08-20T04:56:03;101265.00;;;24.70
15079;BMP180;6932;51.438;5.470;2022-08-20T04:58:33;101266.00;;;24.70
15079;BMP180;6932;51.438;5.470;2022-08-20T05:01:09;101272.00;;;24.70
15079;BMP180;6932;51.438;5.470;2022-08-20T05:03:39;101273.00;;;24.70
15079;BMP180;6932;51.438;5.470;2022-08-20T05:06:10;101272.00;;;24.70
15079;BMP180;6932;51.438;5.470;2022-08-20T05:08:47;101276.00;;;24.70
15079;BMP180;6932;51.438;5.470;2022-08-20T05:11:13;101278.00;;;24.70
15079;BMP180;6932;51.438;5.470;2022-08-20T05:13:41;101275.00;;;24.70
15079;BMP180;6932;51.438;5.470;2022-08-20T05:16:08;101276.00;;;24.70
15079;BMP180;6932;51.438;5.470;2022-08-20T05:18:35;101280.00;;;24.60
15079;BMP180;6932;51.438;5.470;2022-08-20T05:21:02;101279.00;;;24.70
15079;BMP180;6932;51.438;5.470;2022-08-20T05:23:37;101279.00;;;24.70
15079;BMP180;6932;51.438;5.470;2022-08-20T05:26:11;101290.00;;;24.70
15079;BMP180;6932;51.438;5.470;2022-08-20T05:28:43;101278.00;;;24.70
15079;BMP180;6932;51.438;5.470;2022-08-20T05:31:09;101279.00;;;24.70
15079;BMP180;6932;51.438;5.470;2022-08-20T05:33:37;101280.00;;;24.70
15079;BMP180;6932;51.438;5.470;2022-08-20T05:36:05;101276.00;;;24.70
15079;BMP180;6932;51.438;5.470;2022-08-20T05:38:33;101278.00;;;24.70
15079;BMP180;6932;51.438;5.470;2022-08-20T05:41:00;101280.00;;;24.70
15079;BMP180;6932;51.438;5.470;2022-08-20T05:43:26;101288.00;;;24.70
15079;BMP180;6932;51.438;5.470;2022-08-20T05:45:51;101286.00;;;24.70
15079;BMP180;6932;51.438;5.470;2022-08-20T05:48:23;101291.00;;;24.80
15079;BMP180;6932;51.438;5.470;2022-08-20T05:50:52;101283.00;;;24.70
15079;BMP180;6932;51.438;5.470;2022-08-20T05:53:22;101286.00;;;24.80
15079;BMP180;6932;51.438;5.470;2022-08-20T05:55:48;101292.00;;;24.80
15079;BMP180;6932;51.438;5.470;2022-08-20T05:58:22;101296.00;;;24.70
15079;BMP180;6932;51.438;5.470;2022-08-20T06:00:50;101296.00;;;24.70
15079;BMP180;6932;51.438;5.470;2022-08-20T06:03:16;101312.00;;;24.70
15079;BMP180;6932;51.438;5.470;2022-08-20T06:06:02;101299.00;;;24.60
15079;BMP180;6932;51.438;5.470;2022-08-20T06:08:31;101305.00;;;24.60
15079;BMP180;6932;51.438;5.470;2022-08-20T06:10:57;101301.00;;;24.50
15079;BMP180;6932;51.438;5.470;2022-08-20T06:13:22;101307.00;;;24.50
15079;BMP180;6932;51.438;5.470;2022-08-20T06:15:49;101316.00;;;24.50
15079;BMP180;6932;51.438;5.470;2022-08-20T06:18:15;101310.00;;;24.50
15079;BMP180;6932;51.438;5.470;2022-08-20T06:20:41;101303.00;;;24.50
15079;BMP180;6932;51.438;5.470;2022-08-20T06:23:11;101303.00;;;24.40
15079;BMP180;6932;51.438;5.470;2022-08-20T06:25:39;101299.00;;;24.40
15079;BMP180;6932;51.438;5.470;2022-08-20T06:28:05;101301.00;;;24.40
15079;BMP180;6932;51.438;5.470;2022-08-20T06:30:31;101301.00;;;24.40
15079;BMP180;6932;51.438;5.470;2022-08-20T06:32:57;101300.00;;;24.40
15079;BMP180;6932;51.438;5.470;2022-08-20T06:35:24;101293.00;;;24.40
15079;BMP180;6932;51.438;5.470;2022-08-20T06:37:50;101297.00;;;24.40
15079;BMP180;6932;51.438;5.470;2022-08-20T06:40:37;101309.00;;;24.40
15079;BMP180;6932;51.438;5.470;2022-08-20T06:43:03;101306.00;;;24.40
15079;BMP180;6932;51.438;5.470;2022-08-20T06:45:31;101303.00;;;24.40
15079;BMP180;6932;51.438;5.470;2022-08-20T06:48:04;101308.00;;;24.40
15079;BMP180;6932;51.438;5.470;2022-08-20T06:50:38;101310.00;;;24.40
15079;BMP180;6932;51.438;5.470;2022-08-20T06:53:07;101302.00;;;24.40
15079;BMP180;6932;51.438;5.470;2022-08-20T06:55:36;101310.00;;;24.40
15079;BMP180;6932;51.438;5.470;2022-08-20T06:58:08;101304.00;;;24.40
15079;BMP180;6932;51.438;5.470;2022-08-20T07:00:38;101308.00;;;24.40
15079;BMP180;6932;51.438;5.470;2022-08-20T07:03:06;101309.00;;;24.40
15079;BMP180;6932;51.438;5.470;2022-08-20T07:05:38;101315.00;;;24.50
15079;BMP180;6932;51.438;5.470;2022-08-20T07:08:14;101311.00;;;24.50
15079;BMP180;6932;51.438;5.470;2022-08-20T07:10:44;101315.00;;;24.50
15079;BMP180;6932;51.438;5.470;2022-08-20T07:13:11;101317.00;;;24.50
15079;BMP180;6932;51.438;5.470;2022-08-20T07:15:37;101316.00;;;24.50
15079;BMP180;6932;51.438;5.470;2022-08-20T07:18:05;101324.00;;;24.50
15079;BMP180;6932;51.438;5.470;2022-08-20T07:20:34;101313.00;;;24.50
15079;BMP180;6932;51.438;5.470;2022-08-20T07:23:01;101223.00;;;24.50
15079;BMP180;6932;51.438;5.470;2022-08-20T07:25:29;101238.00;;;24.20
15079;BMP180;6932;51.438;5.470;2022-08-20T07:28:12;101231.00;;;23.90
15079;BMP180;6932;51.438;5.470;2022-08-20T07:30:40;101242.00;;;23.70
15079;BMP180;6932;51.438;5.470;2022-08-20T07:33:29;101250.00;;;23.50
15079;BMP180;6932;51.438;5.470;2022-08-20T07:36:04;101339.00;;;23.40
15079;BMP180;6932;51.438;5.470;2022-08-20T07:38:32;101347.00;;;23.60
15079;BMP180;6932;51.438;5.470;2022-08-20T07:41:05;101351.00;;;23.70
15079;BMP180;6932;51.438;5.470;2022-08-20T07:43:34;101351.00;;;23.80
15079;BMP180;6932;51.438;5.470;2022-08-20T07:46:05;101348.00;;;23.90
15079;BMP180;6932;51.438;5.470;2022-08-20T07:48:34;101352.00;;;24.00
15079;BMP180;6932;51.438;5.470;2022-08-20T07:51:03;101359.00;;;24.10
15079;BMP180;6932;51.438;5.470;2022-08-20T07:53:32;101351.00;;;24.20
15079;BMP180;6932;51.438;5.470;2022-08-20T07:56:04;101351.00;;;24.30
15079;BMP180;6932;51.438;5.470;2022-08-20T07:58:34;101364.00;;;24.40
15079;BMP180;6932;51.438;5.470;2022-08-20T08:01:02;101368.00;;;24.50
15079;BMP180;6932;51.438;5.470;2022-08-20T08:03:28;101365.00;;;24.50
15079;BMP180;6932;51.438;5.470;2022-08-20T08:05:54;101371.00;;;24.60
15079;BMP180;6932;51.438;5.470;2022-08-20T08:08:25;101371.00;;;24.70
15079;BMP180;6932;51.438;5.470;2022-08-20T08:10:59;101371.00;;;24.80
15079;BMP180;6932;51.438;5.470;2022-08-20T08:13:30;101372.00;;;24.80
15079;BMP180;6932;51.438;5.470;2022-08-20T08:16:04;101366.00;;;24.90
15079;BMP180;6932;51.438;5.470;2022-08-20T08:18:36;101361.00;;;25.00
15079;BMP180;6932;51.438;5.470;2022-08-20T08:21:08;101366.00;;;25.00
15079;BMP180;6932;51.438;5.470;2022-08-20T08:23:39;101366.00;;;25.00
15079;BMP180;6932;51.438;5.470;2022-08-20T08:26:19;101365.00;;;25.10
15079;BMP180;6932;51.438;5.470;2022-08-20T08:28:53;101370.00;;;25.10
15079;BMP180;6932;51.438;5.470;2022-08-20T08:31:26;101376.00;;;25.20
15079;BMP180;6932;51.438;5.470;2022-08-20T08:34:37;101377.00;;;25.20
15079;BMP180;6932;51.438;5.470;2022-08-20T08:37:14;101373.00;;;25.20
15079;BMP180;6932;51.438;5.470;2022-08-20T08:39:43;101380.00;;;25.20
15079;BMP180;6932;51.438;5.470;2022-08-20T08:42:43;101380.00;;;25.30
15079;BMP180;6932;51.438;5.470;2022-08-20T08:45:12;101385.00;;;25.40
15079;BMP180;6932;51.438;5.470;2022-08-20T08:47:42;101383.00;;;25.50
15079;BMP180;6932;51.438;5.470;2022-08-20T08:50:25;101386.00;;;25.80
15079;BMP180;6932;51.438;5.470;2022-08-20T08:52:58;101393.00;;;26.00
15079;BMP180;6932;51.438;5.470;2022-08-20T08:55:27;101394.00;;;26.20
15079;BMP180;6932;51.438;5.470;2022-08-20T08:57:57;101387.00;;;26.30
15079;BMP180;6932;51.438;5.470;2022-08-20T09:00:24;101391.00;;;26.50
15079;BMP180;6932;51.438;5.470;2022-08-20T09:03:08;101382.00;;;26.70
15079;BMP180;6932;51.438;5.470;2022-08-20T09:05:51;101384.00;;;26.90
15079;BMP180;6932;51.438;5.470;2022-08-20T09:08:25;101383.00;;;27.10
15079;BMP180;6932;51.438;5.470;2022-08-20T09:10:52;101380.00;;;27.40
15079;BMP180;6932;51.438;5.470;2022-08-20T09:13:17;101382.00;;;27.60
15079;BMP180;6932;51.438;5.470;2022-08-20T09:15:44;101388.00;;;27.90
15079;BMP180;6932;51.438;5.470;2022-08-20T09:18:10;101387.00;;;28.10
15079;BMP180;6932;51.438;5.470;2022-08-20T09:20:36;101389.00;;;28.30
15079;BMP180;6932;51.438;5.470;2022-08-20T09:23:05;101382.00;;;28.40
15079;BMP180;6932;51.438;5.470;2022-08-20T09:25:31;101377.00;;;28.60
15079;BMP180;6932;51.438;5.470;2022-08-20T09:27:57;101387.00;;;28.80
15079;BMP180;6932;51.438;5.470;2022-08-20T09:30:23;101388.00;;;28.90
15079;BMP180;6932;51.438;5.470;2022-08-20T09:32:48;101378.00;;;28.90
15079;BMP180;6932;51.438;5.470;2022-08-20T09:35:14;101370.00;;;29.10
15079;BMP180;6932;51.438;5.470;2022-08-20T09:37:41;101366.00;;;29.20
15079;BMP180;6932;51.438;5.470;2022-08-20T09:40:09;101377.00;;;29.40
15079;BMP180;6932;51.438;5.470;2022-08-20T09:42:37;101371.00;;;29.50
15079;BMP180;6932;51.438;5.470;2022-08-20T09:45:04;101375.00;;;29.50
15079;BMP180;6932;51.438;5.470;2022-08-20T09:47:30;101367.00;;;29.60
15079;BMP180;6932;51.438;5.470;2022-08-20T09:49:56;101376.00;;;29.60
15079;BMP180;6932;51.438;5.470;2022-08-20T09:52:26;101369.00;;;29.70
15079;BMP180;6932;51.438;5.470;2022-08-20T09:54:58;101372.00;;;29.70
15079;BMP180;6932;51.438;5.470;2022-08-20T09:57:26;101373.00;;;29.70
15079;BMP180;6932;51.438;5.470;2022-08-20T10:00:05;101371.00;;;29.60
15079;BMP180;6932;51.438;5.470;2022-08-20T10:02:32;101390.00;;;29.60
15079;BMP180;6932;51.438;5.470;2022-08-20T10:04:58;101389.00;;;29.50
15079;BMP180;6932;51.438;5.470;2022-08-20T10:07:24;101381.00;;;29.50
15079;BMP180;6932;51.438;5.470;2022-08-20T10:09:50;101381.00;;;29.40
15079;BMP180;6932;51.438;5.470;2022-08-20T10:12:16;101386.00;;;29.30
15079;BMP180;6932;51.438;5.470;2022-08-20T10:14:41;101379.00;;;29.30
15079;BMP180;6932;51.438;5.470;2022-08-20T10:17:07;101385.00;;;29.30
15079;BMP180;6932;51.438;5.470;2022-08-20T10:19:33;101380.00;;;29.40
15079;BMP180;6932;51.438;5.470;2022-08-20T10:21:59;101388.00;;;29.50
15079;BMP180;6932;51.438;5.470;2022-08-20T10:24:26;101385.00;;;29.60
15079;BMP180;6932;51.438;5.470;2022-08-20T10:26:59;101379.00;;;29.70
15079;BMP180;6932;51.438;5.470;2022-08-20T10:29:27;101380.00;;;29.80
15079;BMP180;6932;51.438;5.470;2022-08-20T10:31:55;101384.00;;;29.90
15079;BMP180;6932;51.438;5.470;2022-08-20T10:34:24;101384.00;;;29.90
15079;BMP180;6932;51.438;5.470;2022-08-20T10:36:50;101395.00;;;30.00
15079;BMP180;6932;51.438;5.470;2022-08-20T10:39:16;101395.00;;;30.10
15079;BMP180;6932;51.438;5.470;2022-08-20T10:41:42;101384.00;;;30.20
15079;BMP180;6932;51.438;5.470;2022-08-20T10:44:08;101394.00;;;30.30
15079;BMP180;6932;51.438;5.470;2022-08-20T10:46:34;101398.00;;;30.40
15079;BMP180;6932;51.438;5.470;2022-08-20T10:49:00;101387.00;;;30.40
15079;BMP180;6932;51.438;5.470;2022-08-20T10:51:25;101392.00;;;30.30
15079;BMP180;6932;51.438;5.470;2022-08-20T10:53:51;101394.00;;;30.30
15079;BMP180;6932;51.438;5.470;2022-08-20T10:56:17;101399.00;;;30.30
15079;BMP180;6932;51.438;5.470;2022-08-20T10:58:43;101392.00;;;30.30
15079;BMP180;6932;51.438;5.470;2022-08-20T11:01:08;101404.00;;;30.40
15079;BMP180;6932;51.438;5.470;2022-08-20T11:03:34;101403.00;;;30.50
15079;BMP180;6932;51.438;5.470;2022-08-20T11:06:01;101395.00;;;30.50
15079;BMP180;6932;51.438;5.470;2022-08-20T11:08:26;101393.00;;;30.60
15079;BMP180;6932;51.438;5.470;2022-08-20T11:10:52;101394.00;;;30.50
15079;BMP180;6932;51.438;5.470;2022-08-20T11:13:18;101389.00;;;30.50
15079;BMP180;6932;51.438;5.470;2022-08-20T11:15:44;101393.00;;;30.50
15079;BMP180;6932;51.438;5.470;2022-08-20T11:18:12;101387.00;;;30.50
15079;BMP180;6932;51.438;5.470;2022-08-20T11:20:38;101391.00;;;30.50
15079;BMP180;6932;51.438;5.470;2022-08-20T11:23:04;101383.00;;;30.50
15079;BMP180;6932;51.438;5.470;2022-08-20T11:25:31;101395.00;;;30.50
15079;BMP180;6932;51.438;5.470;2022-08-20T11:27:58;101393.00;;;30.50
15079;BMP180;6932;51.438;5.470;2022-08-20T11:30:29;101401.00;;;30.50
15079;BMP180;6932;51.438;5.470;2022-08-20T11:32:57;101406.00;;;30.40
15079;BMP180;6932;51.438;5.470;2022-08-20T11:35:27;101414.00;;;30.40
15079;BMP180;6932;51.438;5.470;2022-08-20T11:37:55;101407.00;;;30.30
15079;BMP180;6932;51.438;5.470;2022-08-20T11:40:22;101403.00;;;30.20
15079;BMP180;6932;51.438;5.470;2022-08-20T11:42:48;101423.00;;;30.10
15079;BMP180;6932;51.438;5.470;2022-08-20T11:45:14;101417.00;;;30.00
15079;BMP180;6932;51.438;5.470;2022-08-20T11:47:41;101424.00;;;30.00
15079;BMP180;6932;51.438;5.470;2022-08-20T11:50:15;101418.00;;;29.90
15079;BMP180;6932;51.438;5.470;2022-08-20T11:52:41;101409.00;;;30.00
15079;BMP180;6932;51.438;5.470;2022-08-20T11:55:10;101411.00;;;30.00
15079;BMP180;6932;51.438;5.470;2022-08-20T11:57:41;101414.00;;;30.10
15079;BMP180;6932;51.438;5.470;2022-08-20T12:00:13;101407.00;;;30.10
15079;BMP180;6932;51.438;5.470;2022-08-20T12:02:40;101403.00;;;30.20
15079;BMP180;6932;51.438;5.470;2022-08-20T12:05:09;101397.00;;;30.30
15079;BMP180;6932;51.438;5.470;2022-08-20T12:07:35;101402.00;;;30.30
15079;BMP180;6932;51.438;5.470;2022-08-20T12:10:05;101391.00;;;30.40
15079;BMP180;6932;51.438;5.470;2022-08-20T12:12:31;101397.00;;;30.50
15079;BMP180;6932;51.438;5.470;2022-08-20T12:14:57;101397.00;;;30.50
15079;BMP180;6932;51.438;5.470;2022-08-20T12:17:27;101397.00;;;30.60
15079;BMP180;6932;51.438;5.470;2022-08-20T12:19:56;101399.00;;;30.60
15079;BMP180;6932;51.438;5.470;2022-08-20T12:22:22;101404.00;;;30.70
15079;BMP180;6932;51.438;5.470;2022-08-20T12:24:48;101392.00;;;30.80
15079;BMP180;6932;51.438;5.470;2022-08-20T12:27:26;101388.00;;;30.80
15079;BMP180;6932;51.438;5.470;2022-08-20T12:29:55;101396.00;;;30.80
15079;BMP180;6932;51.438;5.470;2022-08-20T12:32:24;101393.00;;;30.90
15079;BMP180;6932;51.438;5.470;2022-08-20T12:34:51;101391.00;;;30.90
15079;BMP180;6932;51.438;5.470;2022-08-20T12:37:22;101391.00;;;30.90
15079;BMP180;6932;51.438;5.470;2022-08-20T12:39:52;101396.00;;;30.90
15079;BMP180;6932;51.438;5.470;2022-08-20T12:42:19;101390.00;;;30.90
15079;BMP180;6932;51.438;5.470;2022-08-20T12:44:46;101395.00;;;30.80
15079;BMP180;6932;51.438;5.470;2022-08-20T12:50:07;101390.00;;;30.80
15079;BMP180;6932;51.438;5.470;2022-08-20T12:52:33;101395.00;;;30.70
15079;BMP180;6932;51.438;5.470;2022-08-20T12:55:00;101393.00;;;30.70
15079;BMP180;6932;51.438;5.470;2022-08-20T12:57:40;101390.00;;;30.80
15079;BMP180;6932;51.438;5.470;2022-08-20T13:00:21;101388.00;;;30.80
15079;BMP180;6932;51.438;5.470;2022-08-20T13:02:52;101377.00;;;30.80
15079;BMP180;6932;51.438;5.470;2022-08-20T13:05:20;101379.00;;;30.80
15079;BMP180;6932;51.438;5.470;2022-08-20T13:07:47;101393.00;;;30.90
15079;BMP180;6932;51.438;5.470;2022-08-20T13:10:21;101388.00;;;30.90
15079;BMP180;6932;51.438;5.470;2022-08-20T13:12:49;101388.00;;;30.80
15079;BMP180;6932;51.438;5.470;2022-08-20T13:15:15;101385.00;;;30.90
15079;BMP180;6932;51.438;5.470;2022-08-20T13:17:42;101384.00;;;30.90
15079;BMP180;6932;51.438;5.470;2022-08-20T13:20:23;101384.00;;;30.80
15079;BMP180;6932;51.438;5.470;2022-08-20T13:22:56;101383.00;;;30.80
15079;BMP180;6932;51.438;5.470;2022-08-20T13:25:23;101378.00;;;30.70
15079;BMP180;6932;51.438;5.470;2022-08-20T13:27:55;101377.00;;;30.70
15079;BMP180;6932;51.438;5.470;2022-08-20T13:30:22;101386.00;;;30.70
15079;BMP180;6932;51.438;5.470;2022-08-20T13:32:48;101383.00;;;30.60
15079;BMP180;6932;51.438;5.470;2022-08-20T13:35:14;101378.00;;;30.60
15079;BMP180;6932;51.438;5.470;2022-08-20T13:37:41;101380.00;;;30.50
15079;BMP180;6932;51.438;5.470;2022-08-20T13:40:08;101372.00;;;30.50
15079;BMP180;6932;51.438;5.470;2022-08-20T13:42:37;101370.00;;;30.40
15079;BMP180;6932;51.438;5.470;2022-08-20T13:45:05;101366.00;;;30.40
15079;BMP180;6932;51.438;5.470;2022-08-20T13:47:35;101370.00;;;30.40
15079;BMP180;6932;51.438;5.470;2022-08-20T13:50:13;101375.00;;;30.40
15079;BMP180;6932;51.438;5.470;2022-08-20T13:52:40;101368.00;;;30.50
15079;BMP180;6932;51.438;5.470;2022-08-20T13:55:14;101369.00;;;30.50
15079;BMP180;6932;51.438;5.470;2022-08-20T13:57:42;101368.00;;;30.50
15079;BMP180;6932;51.438;5.470;2022-08-20T14:00:16;101358.00;;;30.50
15079;BMP180;6932;51.438;5.470;2022-08-20T14:02:43;101359.00;;;30.50
15079;BMP180;6932;51.438;5.470;2022-08-20T14:05:11;101363.00;;;30.50
15079;BMP180;6932;51.438;5.470;2022-08-20T14:07:39;101365.00;;;30.50
15079;BMP180;6932;51.438;5.470;2022-08-20T14:10:16;101372.00;;;30.50
15079;BMP180;6932;51.438;5.470;2022-08-20T14:12:42;101374.00;;;30.50
15079;BMP180;6932;51.438;5.470;2022-08-20T14:15:09;101382.00;;;30.40
15079;BMP180;6932;51.438;5.470;2022-08-20T14:17:40;101369.00;;;30.40
15079;BMP180;6932;51.438;5.470;2022-08-20T14:20:12;101369.00;;;30.40
15079;BMP180;6932;51.438;5.470;2022-08-20T14:22:39;101368.00;;;30.40
15079;BMP180;6932;51.438;5.470;2022-08-20T14:25:08;101371.00;;;30.40
15079;BMP180;6932;51.438;5.470;2022-08-20T14:27:35;101371.00;;;30.50
15079;BMP180;6932;51.438;5.470;2022-08-20T14:30:06;101372.00;;;30.40